Time;durP1;ratioP1;P1;durP2;ratioP2;P2;SDS_P1;SDS_P2;PMS_P1;PMS_P2;Temp;Humidity;BMP_temperature;BMP_pressure;BME280_temperature;BME280_humidity;BME280_pressure;Samples;Min_cycle;Max_cycle;Signal;HPM_P1;HPM_P2
2022/03/08 00:03:22;;;;;;;12.07;9.53;;;;;;;4.08;39.76;98697.97;8347150;28;20228;-64
2022/03/08 00:07:25;;;;;;;13.03;10.50;;;;;;;3.95;40.02;98697.19;8348254;28;20425;-64
2022/03/08 00:11:28;;;;;;;14.50;10.57;;;;;;;3.95;39.95;98696.34;8348258;28;20550;-64
2022/03/08 00:15:31;;;;;;;15.10;9.93;;;;;;;3.99;40.06;98691.16;8347628;28;20231;-65
2022/03/08 00:19:35;;;;;;;10.37;8.60;;;;;;;4.00;40.47;98695.44;8348183;28;20232;-64
2022/03/08 00:23:39;;;;;;;9.43;8.43;;;;;;;3.97;40.43;98697.19;8348166;28;20244;-64
2022/03/08 00:27:45;;;;;;;14.17;8.23;;;;;;;4.01;40.50;98702.25;8348054;28;20235;-64
2022/03/08 00:31:49;;;;;;;9.47;8.00;;;;;;;4.05;40.15;98698.81;8347609;28;20236;-64
2022/03/08 00:35:53;;;;;;;9.80;7.53;;;;;;;4.13;40.34;98691.06;8347581;28;20298;-64
2022/03/08 00:39:57;;;;;;;13.50;8.07;;;;;;;4.10;40.50;98689.41;8347905;28;20299;-64
2022/03/08 00:43:59;;;;;;;10.10;8.40;;;;;;;4.00;40.57;98682.63;8347812;28;20227;-64
2022/03/08 00:48:03;;;;;;;10.83;9.10;;;;;;;3.97;40.50;98667.28;8347483;28;20293;-64
2022/03/08 00:52:09;;;;;;;12.30;8.40;;;;;;;3.87;40.32;98655.38;8347569;28;20232;-64
2022/03/08 00:56:12;;;;;;;13.77;9.97;;;;;;;3.84;40.27;98653.69;8347698;28;20235;-64
2022/03/08 01:00:18;;;;;;;14.87;11.23;;;;;;;3.81;40.03;98647.72;8347527;28;20236;-64
2022/03/08 01:04:21;;;;;;;15.43;11.87;;;;;;;3.87;39.81;98650.25;8347389;28;20232;-65
2022/03/08 01:08:26;;;;;;;14.43;11.83;;;;;;;3.69;40.31;98643.53;8347274;28;20247;-64
2022/03/08 01:12:29;;;;;;;14.20;12.50;;;;;;;3.69;40.50;98646.97;8347587;28;20232;-64
2022/03/08 01:16:32;;;;;;;16.80;13.10;;;;;;;3.81;40.30;98640.91;8346765;28;20235;-64
2022/03/08 01:20:35;;;;;;;15.17;11.03;;;;;;;3.82;40.06;98637.47;8347097;28;20243;-64
2022/03/08 01:24:39;;;;;;;12.20;9.43;;;;;;;3.79;40.63;98637.50;8347016;28;20236;-65
2022/03/08 01:28:42;;;;;;;13.17;8.57;;;;;;;3.73;40.94;98640.06;8347044;28;20247;-64
2022/03/08 01:32:45;;;;;;;12.07;8.70;;;;;;;3.60;41.06;98629.06;8347036;28;20424;-64
2022/03/08 01:36:49;;;;;;;11.97;8.80;;;;;;;3.68;41.13;98627.31;8346631;28;20264;-64
2022/03/08 01:40:54;;;;;;;10.17;8.13;;;;;;;3.62;41.33;98617.09;8346644;28;20239;-64
2022/03/08 01:44:57;;;;;;;9.63;8.23;;;;;;;3.58;41.24;98615.44;8351552;28;20236;-64
2022/03/08 01:49:00;;;;;;;11.33;8.93;;;;;;;3.60;40.54;98607.72;8354842;28;20204;-64
2022/03/08 01:53:03;;;;;;;13.97;8.87;;;;;;;3.40;41.04;98612.97;8354545;28;20204;-64
2022/03/08 01:57:09;;;;;;;10.07;8.80;;;;;;;3.43;41.41;98601.00;8353940;28;20200;-64
2022/03/08 02:01:12;;;;;;;13.37;9.20;;;;;;;3.52;41.07;98589.84;8353526;28;20554;-64
2022/03/08 02:05:16;;;;;;;12.20;8.80;;;;;;;3.51;41.13;98593.28;8351622;28;20231;-64
2022/03/08 02:09:19;;;;;;;11.07;9.40;;;;;;;3.30;41.13;98591.69;8352019;28;20236;-64
2022/03/08 02:13:25;;;;;;;14.33;10.20;;;;;;;3.22;41.15;98589.16;8351952;28;20236;-64
2022/03/08 02:17:28;;;;;;;15.27;12.43;;;;;;;3.11;41.65;98594.31;8351919;28;20554;-64
2022/03/08 02:21:35;;;;;;;16.60;12.80;;;;;;;3.33;41.34;98573.72;8350958;28;20236;-65
2022/03/08 02:25:38;;;;;;;14.87;11.53;;;;;;;3.24;41.77;98576.34;8351398;28;20232;-64
2022/03/08 02:29:42;;;;;;;16.43;12.50;;;;;;;3.21;41.43;98573.81;8351483;28;20413;-64
2022/03/08 02:33:45;;;;;;;14.30;10.20;;;;;;;3.28;41.41;98576.31;8351641;28;20546;-64
2022/03/08 02:37:51;;;;;;;16.60;10.63;;;;;;;3.18;41.55;98571.25;8350985;28;20239;-64
2022/03/08 02:41:54;;;;;;;15.67;10.93;;;;;;;3.10;41.60;98569.59;8350971;28;20232;-64
2022/03/08 02:45:57;;;;;;;16.27;11.83;;;;;;;3.08;41.29;98552.53;8351137;28;20235;-64
2022/03/08 02:50:01;;;;;;;13.70;11.63;;;;;;;3.05;41.56;98539.75;8351086;28;20423;-64
2022/03/08 02:54:05;;;;;;;13.20;11.43;;;;;;;3.04;41.67;98550.84;8350409;28;20231;-64
2022/03/08 02:58:08;;;;;;;12.87;10.93;;;;;;;3.02;41.93;98550.00;8350359;28;20427;-64
2022/03/08 03:02:11;;;;;;;16.00;10.37;;;;;;;3.11;41.39;98544.84;8350121;28;20326;-64
2022/03/08 03:06:14;;;;;;;15.33;10.87;;;;;;;3.06;41.65;98547.41;8349990;28;20236;-64
2022/03/08 03:10:20;;;;;;;17.37;11.00;;;;;;;2.97;42.23;98542.38;8350163;28;20264;-64
2022/03/08 03:14:23;;;;;;;12.70;10.50;;;;;;;3.02;41.98;98542.34;8350037;28;20242;-64
2022/03/08 03:18:26;;;;;;;15.00;10.73;;;;;;;2.82;41.84;98547.53;8349939;28;20232;-64
2022/03/08 03:22:29;;;;;;;14.70;10.73;;;;;;;2.88;41.69;98550.06;8349629;28;20247;-64
2022/03/08 03:26:34;;;;;;;12.17;10.13;;;;;;;2.80;42.11;98547.56;8349155;28;20228;-65
2022/03/08 03:30:37;;;;;;;12.87;10.00;;;;;;;2.83;42.09;98562.03;8349388;28;20232;-64
2022/03/08 03:34:40;;;;;;;13.00;10.27;;;;;;;2.61;42.43;98564.66;8349346;28;20542;-64
2022/03/08 03:38:43;;;;;;;16.50;10.17;;;;;;;2.72;42.37;98568.03;8349183;28;20235;-64
2022/03/08 03:42:47;;;;;;;15.77;10.77;;;;;;;2.59;42.78;98570.63;8348938;28;20240;-64
2022/03/08 03:46:50;;;;;;;16.87;12.07;;;;;;;2.46;42.52;98567.25;8348939;28;20243;-64
2022/03/08 03:50:53;;;;;;;15.87;11.40;;;;;;;2.41;42.73;98562.13;8349051;28;20238;-64
2022/03/08 03:54:57;;;;;;;14.87;11.37;;;;;;;2.65;42.25;98550.16;8348955;28;20238;-64
2022/03/08 03:59:01;;;;;;;15.73;12.00;;;;;;;2.64;42.09;98551.84;8348943;28;20239;-64
2022/03/08 04:03:04;;;;;;;16.80;12.77;;;;;;;2.66;42.01;98551.84;8348649;28;20542;-64
2022/03/08 04:07:07;;;;;;;17.90;13.13;;;;;;;2.56;42.28;98551.03;8348410;28;20231;-64
2022/03/08 04:11:10;;;;;;;14.80;12.17;;;;;;;2.51;42.39;98555.28;8348440;28;20522;-64
2022/03/08 04:15:15;;;;;;;15.33;12.20;;;;;;;2.56;42.43;98552.75;8348485;28;20232;-64
2022/03/08 04:19:18;;;;;;;17.10;11.33;;;;;;;2.63;42.30;98557.00;8348540;28;20238;-64
2022/03/08 04:23:21;;;;;;;14.60;11.13;;;;;;;2.56;42.30;98548.47;8347949;28;20243;-64
2022/03/08 04:27:24;;;;;;;16.83;11.67;;;;;;;2.59;42.55;98555.28;8348048;28;20236;-64
2022/03/08 04:31:28;;;;;;;15.93;11.17;;;;;;;2.48;42.69;98552.75;8347682;28;20235;-64
2022/03/08 04:35:31;;;;;;;16.90;12.03;;;;;;;2.41;42.95;98551.91;8346896;28;20599;-65
2022/03/08 04:39:35;;;;;;;13.93;10.97;;;;;;;2.47;42.86;98557.00;8347684;28;20560;-64
2022/03/08 04:43:38;;;;;;;13.90;11.10;;;;;;;2.49;42.58;98559.56;8347291;28;20517;-65
2022/03/08 04:47:42;;;;;;;13.17;10.83;;;;;;;2.41;42.73;98558.75;8347541;28;20232;-64
2022/03/08 04:51:46;;;;;;;12.33;10.73;;;;;;;2.50;42.67;98568.94;8347908;28;20242;-64
2022/03/08 04:55:49;;;;;;;13.33;10.70;;;;;;;2.48;42.40;98560.44;8347552;28;20235;-65
2022/03/08 04:59:52;;;;;;;13.70;10.87;;;;;;;2.45;42.39;98563.00;8347658;28;20522;-65
2022/03/08 05:03:56;;;;;;;12.67;10.63;;;;;;;2.31;42.45;98556.19;8347410;28;20232;-64
2022/03/08 05:08:00;;;;;;;12.80;11.47;;;;;;;2.32;42.25;98570.69;8347348;28;20294;-64
2022/03/08 05:12:03;;;;;;;12.97;10.77;;;;;;;2.32;42.58;98577.50;8347145;28;20236;-64
2022/03/08 05:16:06;;;;;;;16.27;11.00;;;;;;;2.26;42.74;98575.78;8347414;28;20231;-64
2022/03/08 05:20:12;;;;;;;12.33;11.03;;;;;;;2.34;42.50;98573.22;8351151;28;20243;-64
2022/03/08 05:24:15;;;;;;;14.93;11.10;;;;;;;2.23;42.77;98583.47;8353596;28;20244;-64
2022/03/08 05:28:19;;;;;;;14.70;11.17;;;;;;;2.18;43.19;98576.66;8353652;28;20359;-64
2022/03/08 05:32:22;;;;;;;13.73;11.03;;;;;;;2.21;42.45;98577.53;8353304;28;20235;-64
2022/03/08 05:36:26;;;;;;;13.47;10.70;;;;;;;2.17;43.07;98574.94;8353428;28;20415;-64
2022/03/08 05:40:29;;;;;;;14.40;10.63;;;;;;;2.19;43.14;98573.25;8353119;28;20240;-64
2022/03/08 05:44:32;;;;;;;12.37;10.27;;;;;;;2.16;43.18;98581.78;8352570;28;20232;-64
2022/03/08 05:48:35;;;;;;;16.20;11.30;;;;;;;2.11;42.88;98569.03;8352374;28;20461;-64
2022/03/08 05:52:40;;;;;;;13.43;10.83;;;;;;;2.13;42.76;98564.75;8352865;28;20236;-65
2022/03/08 05:56:43;;;;;;;14.30;10.90;;;;;;;2.12;43.02;98570.69;8352441;28;20235;-64
2022/03/08 06:00:46;;;;;;;15.07;11.10;;;;;;;2.20;42.81;98580.06;8352302;28;20232;-64
2022/03/08 06:04:49;;;;;;;14.90;10.87;;;;;;;2.40;42.75;98583.47;8351748;28;20236;-64
2022/03/08 06:08:54;;;;;;;14.63;10.60;;;;;;;2.61;42.58;98585.13;8351879;28;20240;-64
2022/03/08 06:12:57;;;;;;;14.43;10.47;;;;;;;3.09;41.60;98585.78;8351777;28;20239;-64
2022/03/08 06:17:01;;;;;;;15.87;11.40;;;;;;;3.52;40.40;98585.59;8351588;28;20232;-64
2022/03/08 06:21:04;;;;;;;13.37;10.70;;;;;;;3.84;39.64;98593.91;8351378;28;20232;-64
2022/03/08 06:25:10;;;;;;;16.17;11.33;;;;;;;4.13;39.16;98595.38;8350159;28;20242;-64
2022/03/08 06:29:13;;;;;;;15.30;11.03;;;;;;;4.15;39.21;98596.22;8348293;28;20244;-64
2022/03/08 06:33:16;;;;;;;14.63;11.43;;;;;;;4.43;38.83;98599.38;8351336;28;20240;-64
2022/03/08 06:37:20;;;;;;;12.00;9.97;;;;;;;4.73;38.66;98600.81;8350837;28;20565;-64
2022/03/08 06:41:24;;;;;;;12.07;9.03;;;;;;;5.15;38.44;98595.19;8350801;28;20552;-64
2022/03/08 06:45:28;;;;;;;9.83;7.17;;;;;;;5.44;38.59;98592.22;8350886;28;20248;-64
2022/03/08 06:49:30;;;;;;;11.33;6.33;;;;;;;5.34;38.94;98596.66;8350712;28;20228;-64
2022/03/08 06:53:33;;;;;;;10.10;6.87;;;;;;;5.68;38.62;98598.75;8350010;28;20232;-64
2022/03/08 06:57:38;;;;;;;7.63;6.30;;;;;;;5.83;38.63;98585.69;8350408;28;20236;-65
2022/03/08 07:01:41;;;;;;;9.40;6.40;;;;;;;6.32;37.84;98593.50;8350434;28;20243;-64
2022/03/08 07:05:46;;;;;;;11.90;6.73;;;;;;;6.34;37.88;98587.47;8350074;28;20232;-64
2022/03/08 07:09:49;;;;;;;9.83;7.37;;;;;;;6.67;37.47;98598.03;8349839;28;20240;-65
2022/03/08 07:13:53;;;;;;;14.53;7.97;;;;;;;6.85;37.39;98589.97;8349782;28;20239;-64
2022/03/08 07:17:56;;;;;;;11.80;7.63;;;;;;;6.68;37.15;98596.28;8350260;28;20227;-64
2022/03/08 07:22:03;;;;;;;13.20;7.40;;;;;;;6.18;37.94;98589.44;8349639;28;20239;-64
2022/03/08 07:26:05;;;;;;;13.00;7.20;;;;;;;6.90;37.28;98584.72;8349236;28;20228;-64
2022/03/08 07:30:16;;;;;;;15.20;7.80;;;;;;;7.19;36.73;98578.94;8349576;28;20233;-64
2022/03/08 07:34:22;;;;;;;15.73;7.90;;;;;;;7.18;37.27;98581.59;8349158;28;20551;-64
2022/03/08 07:38:25;;;;;;;10.50;7.83;;;;;;;7.26;37.21;98581.44;8348607;28;20374;-64
2022/03/08 07:42:28;;;;;;;10.63;7.60;;;;;;;7.70;36.06;98580.44;8348127;28;20545;-64
2022/03/08 07:46:33;;;;;;;10.03;7.63;;;;;;;7.61;36.06;98581.47;8340462;28;20416;-66
2022/03/08 07:50:36;;;;;;;13.57;8.00;;;;;;;7.78;36.01;98586.25;8348517;28;20240;-65
2022/03/08 07:54:39;;;;;;;11.63;8.07;;;;;;;7.67;36.59;98587.38;8348464;28;20232;-64
2022/03/08 07:58:42;;;;;;;12.93;8.13;;;;;;;8.27;35.79;98575.66;8348253;28;20552;-65
2022/03/08 08:02:47;;;;;;;13.70;8.47;;;;;;;8.42;35.07;98583.03;8348264;28;20259;-64
2022/03/08 08:06:50;;;;;;;15.37;8.87;;;;;;;7.63;37.58;98587.47;8348170;28;20236;-64
2022/03/08 08:10:53;;;;;;;13.53;8.60;;;;;;;8.63;35.01;98589.38;8348302;28;20502;-65
2022/03/08 08:14:56;;;;;;;9.50;7.90;;;;;;;9.41;34.45;98591.50;8348263;28;20569;-65
2022/03/08 08:19:00;;;;;;;13.07;7.73;;;;;;;10.45;33.11;98596.88;8348238;28;20238;-64
2022/03/08 08:23:03;;;;;;;12.70;8.07;;;;;;;9.20;33.81;98588.63;8347707;28;20243;-66
2022/03/08 08:27:06;;;;;;;12.20;8.03;;;;;;;9.46;34.24;98594.81;8347993;28;20526;-65
2022/03/08 08:31:09;;;;;;;15.73;8.70;;;;;;;9.08;34.60;98601.06;8347802;28;20232;-65
2022/03/08 08:35:14;;;;;;;12.90;8.17;;;;;;;9.44;34.23;98593.97;8348214;28;20231;-65
2022/03/08 08:39:17;;;;;;;14.17;8.00;;;;;;;9.67;34.32;98589.84;8347875;28;20327;-65
2022/03/08 08:43:20;;;;;;;15.73;8.30;;;;;;;10.55;32.27;98593.09;8347609;28;20240;-65
2022/03/08 08:47:23;;;;;;;12.80;9.00;;;;;;;10.74;31.95;98598.47;8347537;28;20412;-65
2022/03/08 08:51:27;;;;;;;18.50;8.93;;;;;;;10.96;31.62;98598.53;8347975;28;20542;-65
2022/03/08 08:55:30;;;;;;;11.07;8.67;;;;;;;11.06;31.47;98596.47;8353586;28;20232;-65
2022/03/08 08:59:34;;;;;;;14.03;8.10;;;;;;;12.20;29.50;98595.56;8353721;28;20232;-65
2022/03/08 09:03:37;;;;;;;10.00;8.07;;;;;;;12.84;28.98;98592.00;8352364;28;20262;-65
2022/03/08 09:07:41;;;;;;;10.43;7.97;;;;;;;11.89;29.75;98581.22;8354165;28;20425;-61
2022/03/08 09:11:45;;;;;;;13.23;7.07;;;;;;;14.42;37.91;98594.22;8353391;28;20232;-60
2022/03/08 09:15:48;;;;;;;13.13;7.07;;;;;;;14.74;32.68;98588.34;8353766;28;20243;-60
2022/03/08 09:19:51;;;;;;;8.73;5.90;;;;;;;15.68;31.02;98585.94;8353428;28;20281;-60
2022/03/08 09:23:56;;;;;;;10.93;5.80;;;;;;;15.96;34.87;98580.91;8353337;28;20232;-60
2022/03/08 09:28:01;;;;;;;7.90;6.93;;;;;;;15.19;25.23;98576.41;8353225;28;20334;-61
2022/03/08 09:32:05;;;;;;;8.63;5.90;;;;;;;14.54;24.81;98582.31;8353177;28;20234;-58
2022/03/08 09:36:08;;;;;;;8.00;6.40;;;;;;;13.97;23.93;98573.88;8351761;28;20523;-58
2022/03/08 09:40:13;;;;;;;9.00;5.87;;;;;;;12.63;25.26;98572.16;8352736;28;20228;-59
2022/03/08 09:44:16;;;;;;;9.00;6.27;;;;;;;12.36;25.79;98575.00;8352751;28;20251;-58
2022/03/08 09:48:20;;;;;;;9.43;6.00;;;;;;;12.68;25.57;98565.84;8352598;28;20408;-59
2022/03/08 09:52:23;;;;;;;8.37;5.77;;;;;;;12.78;26.12;98562.84;8352734;28;20339;-58
2022/03/08 09:56:27;;;;;;;7.83;5.50;;;;;;;12.73;25.31;98559.59;8352405;28;20240;-58
2022/03/08 10:00:32;;;;;;;7.60;6.30;;;;;;;13.96;24.79;98554.81;8352177;28;20232;-58
2022/03/08 10:04:35;;;;;;;7.30;5.40;;;;;;;14.72;22.84;98561.50;8351249;28;20522;-58
2022/03/08 10:09:10;;;;;;;8.80;6.50;;;;;;;13.20;23.83;98554.88;8351943;28;20236;-58
2022/03/08 10:13:15;;;;;;;7.37;5.10;;;;;;;12.69;24.59;98548.50;8352295;28;20263;-59
2022/03/08 10:17:36;;;;;;;6.77;5.43;;;;;;;12.87;24.24;98554.63;8352219;28;20415;-58
2022/03/08 10:21:40;;;;;;;5.37;4.37;;;;;;;12.54;24.38;98547.41;8351027;28;20235;-58
2022/03/08 10:25:43;;;;;;;4.67;4.17;;;;;;;13.08;23.81;98539.84;8351476;28;20243;-58
2022/03/08 10:29:50;;;;;;;6.03;4.70;;;;;;;11.81;24.09;98539.16;8351865;28;20246;-58
2022/03/08 10:33:54;;;;;;;7.97;4.63;;;;;;;11.09;25.02;98549.72;8351517;28;20239;-58
2022/03/08 10:37:58;;;;;;;7.43;4.70;;;;;;;11.61;24.62;98539.91;8350909;28;20239;-58
2022/03/08 10:42:02;;;;;;;6.70;4.50;;;;;;;13.00;23.21;98547.13;8350474;28;20228;-58
2022/03/08 10:46:18;;;;;;;5.33;4.17;;;;;;;14.36;22.27;98541.59;8349764;28;20262;-58
2022/03/08 10:50:23;;;;;;;8.47;4.50;;;;;;;13.37;22.98;98537.69;8347342;28;20238;-58
2022/03/08 10:54:26;;;;;;;6.57;4.40;;;;;;;12.88;22.68;98518.16;8349576;28;20227;-58
2022/03/08 10:58:29;;;;;;;7.53;4.60;;;;;;;13.50;23.21;98523.19;8349290;28;20427;-59
2022/03/08 11:02:33;;;;;;;5.33;4.00;;;;;;;14.28;21.60;98514.16;8349098;28;20412;-60
2022/03/08 11:06:37;;;;;;;6.47;4.13;;;;;;;12.22;22.68;98518.47;8349228;28;20255;-59
2022/03/08 11:10:41;;;;;;;8.30;4.37;;;;;;;11.78;23.14;98505.53;8346573;28;20231;-61
2022/03/08 11:14:44;;;;;;;5.10;3.60;;;;;;;12.95;21.99;98502.31;8349081;28;20224;-58
2022/03/08 11:18:51;;;;;;;5.83;3.87;;;;;;;12.90;21.98;98494.72;8348259;28;20243;-59
2022/03/08 11:22:55;;;;;;;6.03;4.00;;;;;;;13.00;21.84;98493.38;8349470;28;20228;-59
2022/03/08 11:26:59;;;;;;;5.93;4.20;;;;;;;12.54;22.21;98482.44;8349403;28;20242;-59
2022/03/08 11:31:02;;;;;;;7.43;4.47;;;;;;;12.06;23.33;98497.47;8349109;28;20549;-59
2022/03/08 11:35:13;;;;;;;5.07;4.17;;;;;;;12.19;23.24;98489.19;8348504;28;20535;-58
2022/03/08 11:39:24;;;;;;;6.33;4.53;;;;;;;11.88;23.60;98485.22;8347790;28;20232;-59
2022/03/08 11:43:38;;;;;;;6.20;4.20;;;;;;;12.79;22.83;98473.56;8346465;28;20224;-59
2022/03/08 11:47:44;;;;;;;5.77;4.17;;;;;;;13.09;23.48;98471.31;8349038;28;20232;-59
2022/03/08 11:52:16;;;;;;;6.83;3.70;;;;;;;12.29;22.69;98478.31;8349004;28;20236;-59
2022/03/08 11:56:19;;;;;;;9.70;4.10;;;;;;;13.16;22.41;98470.13;8348760;28;20240;-59
2022/03/08 12:00:30;;;;;;;8.77;4.50;;;;;;;13.10;22.24;98473.03;8348615;28;20236;-58
2022/03/08 12:04:45;;;;;;;6.20;4.13;;;;;;;12.27;22.43;98480.16;8348188;28;20231;-59
2022/03/08 12:08:50;;;;;;;6.53;3.97;;;;;;;12.12;22.71;98479.03;8348313;28;20282;-59
2022/03/08 12:12:54;;;;;;;5.37;3.90;;;;;;;11.81;22.53;98465.66;8347914;28;20228;-58
2022/03/08 12:17:09;;;;;;;7.03;3.83;;;;;;;13.38;21.74;98466.53;8348135;28;20250;-58
2022/03/08 12:21:37;;;;;;;4.60;3.50;;;;;;;13.73;21.55;98466.56;8348103;28;20236;-58
2022/03/08 12:25:41;;;;;;;6.93;3.73;;;;;;;13.35;20.76;98469.28;8346686;28;20239;-59
2022/03/08 12:29:54;;;;;;;6.87;3.63;;;;;;;13.28;20.94;98459.13;8347404;28;20239;-59
2022/03/08 12:34:01;;;;;;;4.47;2.73;;;;;;;13.43;20.34;98447.19;8347868;28;20228;-58
2022/03/08 12:38:24;;;;;;;5.43;3.60;;;;;;;13.75;20.53;98444.78;8347463;28;20236;-59
2022/03/08 12:42:33;;;;;;;5.57;3.30;;;;;;;12.65;20.95;98450.81;8347532;28;20232;-59
2022/03/08 12:46:52;;;;;;;5.70;3.30;;;;;;;13.20;20.86;98443.06;8347236;28;20303;-58
2022/03/08 12:50:56;;;;;;;5.53;3.20;;;;;;;12.85;21.03;98449.88;8347607;28;20235;-59
2022/03/08 12:55:01;;;;;;;3.90;2.90;;;;;;;13.33;20.69;98437.28;8347481;28;20434;-59
2022/03/08 12:59:05;;;;;;;5.03;2.90;;;;;;;14.24;19.96;98438.81;8347414;28;20291;-59
2022/03/08 13:03:10;;;;;;;5.70;3.03;;;;;;;14.02;19.29;98445.13;8347235;28;20235;-65
2022/03/08 13:07:15;;;;;;;6.20;3.47;;;;;;;12.14;21.15;98450.44;8347539;28;20282;-64
2022/03/08 13:11:19;;;;;;;3.87;3.30;;;;;;;12.52;20.07;98451.34;8347409;28;20228;-64
2022/03/08 13:15:27;;;;;;;6.23;3.60;;;;;;;12.39;21.46;98439.81;8347077;28;20247;-64
2022/03/08 13:19:37;;;;;;;5.07;3.60;;;;;;;13.45;20.42;98444.50;8347074;28;20243;-64
2022/03/08 13:23:44;;;;;;;4.83;3.40;;;;;;;12.49;20.78;98448.06;8347054;28;20455;-63
2022/03/08 13:27:59;;;;;;;4.87;2.77;;;;;;;14.26;19.42;98440.44;8346723;28;20236;-64
2022/03/08 13:32:07;;;;;;;7.67;4.20;;;;;;;12.52;20.61;98440.94;8347177;28;20235;-64
2022/03/08 13:36:12;;;;;;;4.43;2.90;;;;;;;12.95;20.25;98438.16;8346514;28;20241;-64
2022/03/08 13:40:25;;;;;;;6.17;3.30;;;;;;;12.85;20.31;98444.69;8348474;28;20424;-65
2022/03/08 13:44:28;;;;;;;4.63;3.37;;;;;;;13.11;19.76;98440.88;8351295;28;20244;-64
2022/03/08 13:48:33;;;;;;;5.60;2.77;;;;;;;13.23;19.41;98436.84;8351818;28;20235;-66
2022/03/08 13:52:36;;;;;;;7.13;3.47;;;;;;;13.77;19.24;98427.31;8352690;28;20557;-66
2022/03/08 13:56:43;;;;;;;6.87;3.27;;;;;;;12.92;19.58;98433.09;8352265;28;20243;-66
2022/03/08 14:00:47;;;;;;;7.23;3.00;;;;;;;12.20;20.49;98426.78;8352535;28;20425;-64
2022/03/08 14:04:51;;;;;;;3.83;3.20;;;;;;;11.91;20.48;98439.25;8351939;28;20243;-64
2022/03/08 14:08:55;;;;;;;4.73;3.40;;;;;;;11.79;20.29;98434.56;8352228;28;20228;-64
2022/03/08 14:12:59;;;;;;;6.20;3.37;;;;;;;12.90;20.07;98434.94;8352075;28;20220;-64
2022/03/08 14:17:04;;;;;;;7.83;2.97;;;;;;;11.65;20.90;98436.88;8351406;28;20232;-64
2022/03/08 14:21:09;;;;;;;5.80;3.30;;;;;;;12.01;20.78;98431.94;8349817;28;20239;-64
2022/03/08 14:25:12;;;;;;;5.00;3.50;;;;;;;12.35;20.52;98429.63;8351757;28;20372;-64
2022/03/08 14:29:15;;;;;;;7.33;3.93;;;;;;;12.66;20.35;98431.69;8351654;28;20232;-64
2022/03/08 14:33:19;;;;;;;5.80;4.40;;;;;;;12.07;20.80;98436.00;8351247;28;20266;-64
2022/03/08 14:37:23;;;;;;;5.47;3.57;;;;;;;12.83;20.35;98415.31;8351286;28;20243;-64
2022/03/08 14:41:27;;;;;;;5.63;3.57;;;;;;;12.85;20.35;98414.38;8351677;28;20243;-64
2022/03/08 14:45:30;;;;;;;4.00;3.50;;;;;;;13.14;20.09;98413.91;8350861;28;20253;-64
2022/03/08 14:49:54;;;;;;;6.03;3.30;;;;;;;13.38;19.95;98406.69;8344655;28;20232;-59
2022/03/08 14:53:59;;;;;;;5.93;3.70;;;;;;;13.10;20.29;98410.63;8349960;28;20418;-59
2022/03/08 14:58:02;;;;;;;5.00;3.63;;;;;;;12.91;19.89;98395.03;8347609;28;20236;-59
2022/03/08 15:02:05;;;;;;;6.67;3.87;;;;;;;12.90;19.49;98395.94;8350586;28;20228;-59
2022/03/08 15:06:08;;;;;;;4.83;3.40;;;;;;;12.87;19.78;98391.75;8350715;28;20232;-59
2022/03/08 15:10:13;;;;;;;6.37;3.50;;;;;;;13.06;20.65;98389.13;8348958;28;20231;-66
2022/03/08 15:14:16;;;;;;;4.83;3.40;;;;;;;13.45;20.01;98384.69;8349694;28;20232;-59
2022/03/08 15:18:20;;;;;;;6.07;3.50;;;;;;;12.71;20.47;98380.34;8350046;28;20239;-59
2022/03/08 15:22:23;;;;;;;4.07;3.33;;;;;;;12.46;20.66;98381.47;8348972;28;20232;-59
2022/03/08 15:26:31;;;;;;;5.40;3.93;;;;;;;12.15;20.67;98384.63;8347529;28;20227;-59
2022/03/08 15:30:35;;;;;;;8.40;3.80;;;;;;;12.30;21.02;98378.75;8347098;28;20227;-59
2022/03/08 15:34:38;;;;;;;4.37;3.33;;;;;;;12.57;20.61;98374.97;8348496;28;20442;-59
2022/03/08 15:38:41;;;;;;;4.50;3.60;;;;;;;12.70;21.12;98382.13;8347312;28;20418;-59
2022/03/08 15:42:46;;;;;;;6.67;3.83;;;;;;;12.45;20.87;98386.75;8346422;28;20244;-58
2022/03/08 15:46:49;;;;;;;6.53;3.50;;;;;;;12.52;20.74;98380.38;8348324;28;20236;-59
2022/03/08 15:50:52;;;;;;;6.20;3.77;;;;;;;12.40;20.52;98388.72;8348643;28;20228;-59
2022/03/08 15:54:56;;;;;;;8.10;3.43;;;;;;;11.40;21.27;98385.19;8348558;28;20251;-66
2022/03/08 15:59:01;;;;;;;6.00;3.60;;;;;;;11.43;21.54;98380.72;8348048;28;20232;-66
2022/03/08 16:03:05;;;;;;;8.87;3.80;;;;;;;11.50;21.58;98382.16;8347114;28;20235;-65
2022/03/08 16:07:11;;;;;;;7.53;4.10;;;;;;;11.26;21.77;98385.75;8346936;28;20461;-65
2022/03/08 16:11:15;;;;;;;8.93;3.57;;;;;;;11.57;21.48;98384.47;8347750;28;20232;-65
2022/03/08 16:15:20;;;;;;;5.67;3.90;;;;;;;11.87;21.28;98392.72;8347431;28;20568;-65
2022/03/08 16:19:23;;;;;;;5.57;3.73;;;;;;;11.46;21.78;98393.56;8344770;28;20228;-65
2022/03/08 16:23:26;;;;;;;5.70;4.00;;;;;;;11.01;21.78;98386.72;8344729;28;20232;-66
2022/03/08 16:27:29;;;;;;;6.43;3.33;;;;;;;11.05;22.12;98390.88;8347117;28;20239;-66
2022/03/08 16:31:36;;;;;;;6.10;4.00;;;;;;;11.07;21.89;98391.66;8339240;28;20236;-66
2022/03/08 16:35:40;;;;;;;8.10;6.13;;;;;;;10.95;22.35;98385.22;8344309;28;20247;-66
2022/03/08 16:39:43;;;;;;;8.90;5.57;;;;;;;10.85;22.60;98393.41;8348016;28;20511;-65
2022/03/08 16:43:45;;;;;;;6.23;4.77;;;;;;;10.75;22.66;98396.34;8346655;28;20231;-67
2022/03/08 16:47:50;;;;;;;5.57;4.07;;;;;;;11.01;23.02;98383.28;8347161;28;20240;-59
2022/03/08 16:51:53;;;;;;;8.80;5.10;;;;;;;10.75;22.54;98385.13;8347516;28;20566;-59
2022/03/08 16:55:56;;;;;;;8.73;6.23;;;;;;;10.46;23.06;98394.00;8347253;28;20240;-59
2022/03/08 17:00:00;;;;;;;8.37;5.70;;;;;;;10.92;23.06;98392.25;8342354;28;20300;-59
2022/03/08 17:04:05;;;;;;;8.60;6.63;;;;;;;10.72;22.63;98390.44;8326675;28;20229;-59
2022/03/08 17:08:07;;;;;;;9.10;6.73;;;;;;;10.54;23.40;98391.97;8314211;28;20233;-59
2022/03/08 17:12:18;;;;;;;10.57;7.60;;;;;;;10.90;23.98;98392.31;8314510;28;20239;-59
2022/03/08 17:16:22;;;;;;;10.57;7.10;;;;;;;10.94;24.47;98399.06;8319957;28;20236;-59
2022/03/08 17:20:26;;;;;;;13.27;7.60;;;;;;;10.92;24.41;98405.22;8345350;28;20235;-59
2022/03/08 17:24:29;;;;;;;10.30;7.60;;;;;;;10.76;24.61;98411.00;8353205;28;20244;-59
2022/03/08 17:28:32;;;;;;;11.67;8.17;;;;;;;10.74;24.24;98414.56;8344954;28;20236;-59
2022/03/08 17:32:35;;;;;;;15.30;11.43;;;;;;;10.49;23.94;98420.66;8352782;28;20232;-59
2022/03/08 17:36:40;;;;;;;13.73;10.13;;;;;;;10.46;24.05;98418.16;8352241;28;20231;-59
2022/03/08 17:40:43;;;;;;;14.23;11.30;;;;;;;10.55;24.84;98427.34;8352126;28;20224;-59
2022/03/08 17:45:06;;;;;;;13.30;9.10;;;;;;;10.49;25.23;98430.13;8351274;28;20422;-59
2022/03/08 17:49:09;;;;;;;9.17;6.30;;;;;;;10.41;25.25;98429.56;8351421;28;20238;-59
2022/03/08 17:53:14;;;;;;;22.53;16.60;;;;;;;10.35;25.89;98441.00;8352444;28;20232;-59
2022/03/08 17:57:17;;;;;;;14.80;12.40;;;;;;;10.36;26.64;98442.69;8349802;28;20247;-59
2022/03/08 18:01:20;;;;;;;13.23;9.03;;;;;;;10.32;26.56;98447.13;8352307;28;20235;-59
2022/03/08 18:05:25;;;;;;;12.37;6.97;;;;;;;10.26;27.69;98455.09;8352439;28;20232;-58
2022/03/08 18:09:29;;;;;;;11.27;5.77;;;;;;;10.19;26.77;98451.03;8352479;28;20557;-58
2022/03/08 18:13:32;;;;;;;10.10;5.50;;;;;;;10.11;26.40;98453.88;8344031;28;20537;-59
2022/03/08 18:17:36;;;;;;;6.93;4.73;;;;;;;9.93;26.37;98450.16;8352425;28;20531;-59
2022/03/08 18:21:39;;;;;;;11.33;7.00;;;;;;;9.93;27.18;98460.50;8351403;28;20232;-59
2022/03/08 18:25:49;;;;;;;9.70;5.43;;;;;;;9.84;26.71;98463.41;8350098;28;20422;-59
2022/03/08 18:29:52;;;;;;;12.53;6.03;;;;;;;9.73;27.15;98462.94;8351099;28;20287;-59
2022/03/08 18:33:55;;;;;;;17.83;12.43;;;;;;;9.68;27.13;98465.66;8351482;28;20243;-59
2022/03/08 18:37:58;;;;;;;18.40;10.50;;;;;;;9.50;27.28;98467.13;8351284;28;20232;-59
2022/03/08 18:42:03;;;;;;;19.40;10.97;;;;;;;9.42;27.29;98471.66;8351248;28;20244;-59
2022/03/08 18:46:06;;;;;;;15.03;10.03;;;;;;;9.36;28.10;98472.72;8351153;28;20228;-59
2022/03/08 18:50:10;;;;;;;15.37;11.50;;;;;;;9.19;28.81;98472.38;8350762;28;20290;-59
2022/03/08 18:54:14;;;;;;;15.50;11.53;;;;;;;9.23;28.79;98476.56;8350816;28;20239;-59
2022/03/08 18:58:18;;;;;;;16.03;11.30;;;;;;;9.06;29.12;98477.06;8350792;28;20419;-59
2022/03/08 19:02:21;;;;;;;19.47;14.23;;;;;;;9.10;28.64;98476.13;8350519;28;20565;-59
2022/03/08 19:06:25;;;;;;;56.67;40.80;;;;;;;8.95;28.94;98485.16;8350412;28;20228;-59